createdAt,value
2019-04-10T00:00:37.333Z,3.30
2019-04-10T00:03:04.114Z,3.30
2019-04-10T00:05:29.184Z,3.20
2019-04-10T00:07:55.486Z,3.10
2019-04-10T00:10:21.927Z,3.10
2019-04-10T00:12:47.920Z,3.10
2019-04-10T00:15:16.097Z,3.10
2019-04-10T00:17:40.927Z,3.00
2019-04-10T00:20:07.758Z,3.00
2019-04-10T00:22:32.708Z,3.00
2019-04-10T00:25:00.136Z,2.90
2019-04-10T00:27:26.265Z,2.90
2019-04-10T00:29:52.321Z,2.90
2019-04-10T00:32:17.607Z,2.80
2019-04-10T00:34:43.573Z,2.80
2019-04-10T00:37:20.424Z,2.80
2019-04-10T00:39:35.578Z,2.60
2019-04-10T00:42:01.595Z,2.60
2019-04-10T00:44:27.881Z,2.60
2019-04-10T00:46:54.821Z,2.50
2019-04-10T00:49:20.439Z,2.50
2019-04-10T00:51:46.397Z,2.40
2019-04-10T00:54:12.396Z,2.40
2019-04-10T00:56:38.963Z,2.40
2019-04-10T00:59:04.451Z,2.30
2019-04-10T01:01:30.431Z,2.30
2019-04-10T01:03:56.506Z,2.20
2019-04-10T01:06:22.480Z,2.20
2019-04-10T01:08:49.229Z,2.10
2019-04-10T01:11:15.270Z,2.10
2019-04-10T01:13:41.281Z,2.10
2019-04-10T01:16:07.273Z,2.10
2019-04-10T01:18:35.125Z,2.00
2019-04-10T01:21:00.068Z,2.00
2019-04-10T01:23:26.092Z,2.00
2019-04-10T01:25:52.075Z,1.90
2019-04-10T01:28:18.089Z,1.90
2019-04-10T01:30:44.087Z,1.90
2019-04-10T01:33:10.104Z,1.90
2019-04-10T01:35:36.249Z,1.90
2019-04-10T01:38:05.554Z,1.80
2019-04-10T01:40:28.922Z,1.80
2019-04-10T01:43:08.321Z,1.90
2019-04-10T01:45:20.314Z,1.80
2019-04-10T01:47:46.284Z,1.80
2019-04-10T01:50:13.051Z,1.80
2019-04-10T01:52:39.777Z,1.80
2019-04-10T01:55:18.114Z,1.80
2019-04-10T01:57:32.481Z,1.80
2019-04-10T01:59:58.313Z,1.80
2019-04-10T02:02:23.934Z,1.70
2019-04-10T02:04:52.425Z,1.70
2019-04-10T02:07:16.156Z,1.70
2019-04-10T02:09:42.014Z,1.80
2019-04-10T02:12:07.973Z,1.80
2019-04-10T02:14:34.735Z,1.70
2019-04-10T02:17:00.701Z,1.70
2019-04-10T02:19:26.695Z,1.70
2019-04-10T02:21:52.659Z,1.70
2019-04-10T02:24:18.817Z,1.70
2019-04-10T02:26:45.668Z,1.70
2019-04-10T02:29:11.495Z,1.70
2019-04-10T02:31:39.072Z,1.70
2019-04-10T02:34:04.793Z,1.60
2019-04-10T02:36:31.477Z,1.60
2019-04-10T02:39:08.448Z,1.60
2019-04-10T02:41:21.670Z,1.60
2019-04-10T02:43:47.604Z,1.60
2019-04-10T02:46:13.616Z,1.60
2019-04-10T02:48:39.598Z,1.60
2019-04-10T02:51:06.169Z,1.60
2019-04-10T02:53:31.739Z,1.60
2019-04-10T02:55:58.258Z,1.60
2019-04-10T02:58:24.788Z,1.60
2019-04-10T03:00:53.859Z,1.60
2019-04-10T03:03:17.916Z,1.60
2019-04-10T03:05:42.699Z,1.50
2019-04-10T03:08:09.018Z,1.50
2019-04-10T03:10:41.349Z,1.50
2019-04-10T03:13:00.781Z,1.50
2019-04-10T03:15:27.250Z,1.50
2019-04-10T03:17:52.795Z,1.50
2019-04-10T03:20:18.807Z,1.50
2019-04-10T03:22:45.497Z,1.40
2019-04-10T03:25:11.504Z,1.40
2019-04-10T03:27:38.565Z,1.40
2019-04-10T03:30:05.221Z,1.40
2019-04-10T03:32:35.527Z,1.40
2019-04-10T03:34:56.645Z,1.30
2019-04-10T03:37:22.408Z,1.30
2019-04-10T03:39:49.111Z,1.30
2019-04-10T03:42:16.663Z,1.30
2019-04-10T03:44:42.970Z,1.20
2019-04-10T03:47:09.097Z,1.30
2019-04-10T03:49:34.016Z,1.30
2019-04-10T03:52:00.968Z,1.30
2019-04-10T03:54:26.026Z,1.20
2019-04-10T03:56:52.061Z,1.20
2019-04-10T03:59:18.143Z,1.20
2019-04-10T04:01:44.119Z,1.10
2019-04-10T04:04:10.154Z,1.10
2019-04-10T04:06:36.139Z,1.10
2019-04-10T04:09:07.781Z,1.10
2019-04-10T04:11:29.328Z,1.10
2019-04-10T04:13:54.217Z,1.00
2019-04-10T04:16:20.217Z,1.00
2019-04-10T04:18:46.930Z,1.00
2019-04-10T04:21:12.934Z,1.00
2019-04-10T04:23:38.882Z,1.00
2019-04-10T04:26:05.587Z,1.00
2019-04-10T04:28:32.018Z,1.00
2019-04-10T04:30:58.830Z,1.00
2019-04-10T04:33:24.612Z,1.00
2019-04-10T04:35:51.046Z,1.00
2019-04-10T04:38:17.789Z,1.00
2019-04-10T04:40:44.242Z,1.00
2019-04-10T04:43:09.563Z,1.00
2019-04-10T04:45:35.538Z,1.00
2019-04-10T04:48:01.863Z,1.00
2019-04-10T04:50:29.196Z,1.00
2019-04-10T04:52:54.348Z,1.00
2019-04-10T04:55:20.314Z,1.00
2019-04-10T04:57:47.137Z,1.00
2019-04-10T05:00:13.185Z,1.00
2019-04-10T05:02:39.218Z,1.00
2019-04-10T05:05:05.151Z,1.00
2019-04-10T05:07:31.291Z,1.10
2019-04-10T05:09:59.151Z,1.10
2019-04-10T05:12:23.519Z,1.20
2019-04-10T05:14:49.213Z,1.20
2019-04-10T05:17:17.203Z,1.20
2019-04-10T05:19:41.328Z,1.30
2019-04-10T05:22:08.096Z,1.30
2019-04-10T05:24:34.258Z,1.30
2019-04-10T05:27:01.203Z,1.30
2019-04-10T05:29:29.093Z,1.40
2019-04-10T05:31:53.177Z,1.50
2019-04-10T05:34:19.882Z,1.50
2019-04-10T05:36:45.087Z,1.60
2019-04-10T05:39:11.099Z,1.70
2019-04-10T05:41:37.831Z,1.70
2019-04-10T05:44:03.148Z,1.70
2019-04-10T05:46:29.120Z,1.80
2019-04-10T05:48:55.940Z,1.90
2019-04-10T05:51:21.912Z,1.80
2019-04-10T05:53:51.032Z,2.10
2019-04-10T05:56:14.668Z,2.10
2019-04-10T05:58:41.421Z,2.20
2019-04-10T06:01:07.580Z,2.20
2019-04-10T06:03:33.466Z,2.30
2019-04-10T06:06:00.971Z,2.40
2019-04-10T06:08:25.829Z,2.40
2019-04-10T06:10:51.962Z,2.50
2019-04-10T06:13:17.579Z,2.50
2019-04-10T06:15:43.586Z,2.60
2019-04-10T06:18:09.585Z,2.70
2019-04-10T06:20:37.541Z,2.80
2019-04-10T06:23:03.230Z,2.80
2019-04-10T06:25:28.884Z,2.90
2019-04-10T06:27:54.432Z,3.00
2019-04-10T06:30:20.585Z,3.00
2019-04-10T06:32:47.348Z,3.10
2019-04-10T06:35:13.583Z,3.20
2019-04-10T06:37:40.078Z,3.20
2019-04-10T06:40:15.089Z,3.60
2019-04-10T06:42:38.838Z,4.70
2019-04-10T06:44:58.511Z,6.70
2019-04-10T06:47:24.372Z,6.70
2019-04-10T06:49:50.529Z,7.30
2019-04-10T06:52:16.662Z,7.30
2019-04-10T06:54:42.318Z,7.50
2019-04-10T06:57:08.360Z,8.10
2019-04-10T06:59:34.441Z,8.00
2019-04-10T07:02:13.104Z,8.10
2019-04-10T07:04:26.629Z,8.80
2019-04-10T07:06:58.711Z,9.90
2019-04-10T07:09:21.327Z,9.40
2019-04-10T07:11:44.942Z,9.90
2019-04-10T07:14:14.028Z,9.70
2019-04-10T07:16:37.516Z,10.40
2019-04-10T07:19:06.166Z,10.40
2019-04-10T07:21:30.771Z,10.50
2019-04-10T07:24:01.161Z,9.90
2019-04-10T07:26:33.265Z,11.30
2019-04-10T07:28:48.992Z,11.40
2019-04-10T07:31:13.733Z,10.90
2019-04-10T07:33:40.579Z,10.70
2019-04-10T07:36:10.835Z,11.40
2019-04-10T07:38:32.981Z,11.20
2019-04-10T07:40:58.899Z,11.20
2019-04-10T07:43:27.422Z,11.50
2019-04-10T07:45:50.678Z,11.30
2019-04-10T07:48:16.689Z,12.50
2019-04-10T07:50:45.300Z,12.00
2019-04-10T07:53:08.745Z,11.50
2019-04-10T07:55:34.738Z,12.10
2019-04-10T07:58:02.684Z,11.30
2019-04-10T08:00:28.513Z,11.10
2019-04-10T08:02:55.265Z,11.00
2019-04-10T08:05:20.955Z,10.30
2019-04-10T08:07:47.308Z,9.60
2019-04-10T08:10:13.260Z,9.50
2019-04-10T08:12:45.900Z,10.00
2019-04-10T08:15:05.306Z,10.10
2019-04-10T08:17:32.405Z,11.10
2019-04-10T08:19:57.381Z,11.50
2019-04-10T08:22:23.399Z,11.70
2019-04-10T08:24:49.385Z,12.70
2019-04-10T08:27:17.137Z,12.20
2019-04-10T08:29:42.863Z,12.10
2019-04-10T08:32:08.189Z,11.80
2019-04-10T08:34:34.185Z,12.10
2019-04-10T08:37:01.726Z,12.70
2019-04-10T08:39:36.012Z,12.70
2019-04-10T08:41:52.995Z,11.80
2019-04-10T08:44:19.937Z,11.10
2019-04-10T08:46:46.176Z,11.60
2019-04-10T08:49:12.156Z,12.50
2019-04-10T08:51:37.372Z,12.10
2019-04-10T08:54:03.212Z,11.70
2019-04-10T08:56:30.232Z,12.50
2019-04-10T08:58:57.193Z,12.40
2019-04-10T09:01:22.981Z,12.20
2019-04-10T09:03:48.907Z,12.90
2019-04-10T09:06:15.332Z,11.10
2019-04-10T09:08:41.966Z,11.00
2019-04-10T09:11:07.117Z,12.40
2019-04-10T09:13:34.682Z,13.00
2019-04-10T09:16:00.463Z,12.90
2019-04-10T09:18:27.382Z,13.80
2019-04-10T09:20:53.420Z,13.70
2019-04-10T09:23:32.033Z,13.60
2019-04-10T09:25:45.497Z,13.50
2019-04-10T09:28:11.482Z,12.80
2019-04-10T09:30:37.485Z,13.00
2019-04-10T09:33:15.761Z,12.90
2019-04-10T09:35:30.905Z,12.40
2019-04-10T09:37:56.631Z,12.30
2019-04-10T09:40:22.477Z,12.90
2019-04-10T09:42:48.434Z,12.80
2019-04-10T09:45:15.397Z,13.00
2019-04-10T09:47:41.675Z,13.60
2019-04-10T09:50:07.670Z,14.30
2019-04-10T09:52:33.276Z,13.20
2019-04-10T09:54:59.620Z,13.20
2019-04-10T09:57:25.340Z,13.40
2019-04-10T09:59:52.436Z,13.20
2019-04-10T10:02:17.687Z,13.60
2019-04-10T10:04:43.906Z,13.80
2019-04-10T10:07:10.327Z,13.00
2019-04-10T10:09:35.670Z,12.80
2019-04-10T10:12:01.628Z,11.70
2019-04-10T10:14:28.540Z,11.60
2019-04-10T10:16:53.658Z,11.00
2019-04-10T10:19:19.676Z,11.80
2019-04-10T10:21:46.400Z,12.00
2019-04-10T10:24:14.090Z,11.70
2019-04-10T10:26:39.837Z,11.70
2019-04-10T10:29:05.998Z,11.00
2019-04-10T10:31:32.475Z,11.00
2019-04-10T10:33:58.764Z,10.60
2019-04-10T10:36:35.470Z,10.60
2019-04-10T10:39:03.582Z,10.00
2019-04-10T10:41:18.037Z,10.50
2019-04-10T10:43:42.879Z,10.40
2019-04-10T10:46:09.635Z,10.80
2019-04-10T10:48:35.825Z,10.80
2019-04-10T10:51:02.422Z,10.00
2019-04-10T10:53:28.287Z,9.90
2019-04-10T10:55:53.941Z,9.90
2019-04-10T10:58:21.749Z,10.30
2019-04-10T11:00:47.404Z,10.30
2019-04-10T11:03:12.609Z,10.50
2019-04-10T11:05:39.381Z,10.60
2019-04-10T11:08:05.483Z,10.60
2019-04-10T11:10:31.479Z,10.30
2019-04-10T11:12:58.480Z,10.20
2019-04-10T11:15:23.888Z,10.10
2019-04-10T11:17:50.275Z,10.40
2019-04-10T11:20:17.811Z,10.40
2019-04-10T11:22:43.071Z,10.40
2019-04-10T11:25:09.035Z,10.00
2019-04-10T11:27:35.648Z,10.40
2019-04-10T11:30:03.470Z,10.90
2019-04-10T11:32:28.878Z,10.90
2019-04-10T11:34:55.494Z,10.60
2019-04-10T11:37:31.769Z,10.70
2019-04-10T11:39:48.144Z,10.40
2019-04-10T11:42:12.196Z,10.90
2019-04-10T11:44:39.616Z,10.70
2019-04-10T11:47:06.461Z,10.80
2019-04-10T11:49:31.530Z,10.80
2019-04-10T11:51:59.659Z,11.30
2019-04-10T11:54:26.577Z,11.10
2019-04-10T11:56:49.115Z,11.30
2019-04-10T11:59:14.496Z,10.90
2019-04-10T12:01:43.195Z,10.70
2019-04-10T12:04:10.085Z,10.60
2019-04-10T12:06:34.438Z,10.60
2019-04-10T12:11:25.682Z,10.80
2019-04-10T12:13:51.538Z,11.00
2019-04-10T12:16:17.572Z,10.50
2019-04-10T12:18:43.646Z,9.90
2019-04-10T12:21:09.584Z,10.50
2019-04-10T12:23:36.804Z,10.40
2019-04-10T12:26:01.600Z,11.00
2019-04-10T12:28:28.360Z,11.20
2019-04-10T12:30:55.381Z,11.20
2019-04-10T12:33:21.301Z,10.70
2019-04-10T12:35:46.474Z,10.40
2019-04-10T12:38:13.418Z,10.40
2019-04-10T12:40:40.467Z,10.40
2019-04-10T12:43:05.309Z,10.40
2019-04-10T12:45:32.644Z,10.50
2019-04-10T12:47:58.543Z,10.50
2019-04-10T12:50:24.735Z,10.40
2019-04-10T12:52:51.268Z,10.30
2019-04-10T12:55:16.970Z,10.30
2019-04-10T12:57:43.721Z,10.50
2019-04-10T13:00:10.433Z,10.40
2019-04-10T13:02:36.583Z,10.40
2019-04-10T13:05:03.128Z,10.40
2019-04-10T13:07:29.495Z,10.10
2019-04-10T13:09:54.599Z,10.30
2019-04-10T13:12:20.853Z,10.10
2019-04-10T13:14:46.621Z,10.20
2019-04-10T13:17:12.599Z,10.20
2019-04-10T13:19:38.610Z,10.40
2019-04-10T13:22:04.590Z,10.20
2019-04-10T13:24:30.629Z,10.20
2019-04-10T13:26:56.607Z,10.30
2019-04-10T13:29:24.295Z,10.40
2019-04-10T13:31:49.389Z,10.30
2019-04-10T13:34:15.415Z,10.30
2019-04-10T13:36:41.893Z,10.50
2019-04-10T13:39:08.679Z,10.20
2019-04-10T13:41:34.482Z,9.90
2019-04-10T13:44:00.300Z,9.90
2019-04-10T13:46:26.846Z,10.00
2019-04-10T13:48:53.484Z,10.10
2019-04-10T13:51:19.305Z,10.10
2019-04-10T13:53:46.015Z,10.20
2019-04-10T13:56:11.194Z,10.20
2019-04-10T13:58:37.213Z,10.00
2019-04-10T14:01:03.199Z,9.70
2019-04-10T14:03:30.120Z,9.70
2019-04-10T14:05:55.280Z,9.80
2019-04-10T14:08:32.408Z,9.90
2019-04-10T14:10:47.335Z,9.90
2019-04-10T14:13:13.677Z,10.10
2019-04-10T14:15:40.022Z,10.10
2019-04-10T14:18:06.119Z,10.00
2019-04-10T14:20:31.559Z,10.00
2019-04-10T14:22:57.889Z,10.10
2019-04-10T14:25:23.580Z,10.00
2019-04-10T14:27:49.572Z,10.10
2019-04-10T14:30:16.295Z,9.80
2019-04-10T14:32:43.014Z,9.90
2019-04-10T14:35:09.796Z,9.90
2019-04-10T14:37:35.729Z,9.80
2019-04-10T14:40:02.148Z,9.80
2019-04-10T14:42:27.118Z,9.80
2019-04-10T14:44:53.170Z,9.80
2019-04-10T14:47:19.211Z,9.60
2019-04-10T14:49:45.266Z,9.60
2019-04-10T14:52:11.253Z,9.70
2019-04-10T14:54:37.616Z,9.80
2019-04-10T14:57:04.268Z,9.80
2019-04-10T14:59:29.366Z,9.60
2019-04-10T15:01:55.355Z,9.70
2019-04-10T15:04:21.420Z,9.80
2019-04-10T15:06:47.978Z,9.60
2019-04-10T15:09:20.827Z,9.50
2019-04-10T15:11:40.572Z,9.60
2019-04-10T15:14:06.285Z,9.40
2019-04-10T15:16:33.450Z,9.40
2019-04-10T15:18:58.377Z,9.50
2019-04-10T15:21:25.021Z,9.60
2019-04-10T15:23:51.092Z,9.50
2019-04-10T15:26:17.208Z,9.40
2019-04-10T15:28:43.628Z,9.40
2019-04-10T15:31:09.272Z,9.40
2019-04-10T15:33:35.291Z,9.30
2019-04-10T15:36:02.028Z,9.20
2019-04-10T15:38:28.764Z,9.30
2019-04-10T15:40:56.704Z,9.40
2019-04-10T15:43:23.568Z,9.30
2019-04-10T15:45:48.382Z,9.30
2019-04-10T15:48:13.706Z,9.10
2019-04-10T15:50:39.761Z,9.10
2019-04-10T15:53:05.786Z,9.20
2019-04-10T15:55:32.185Z,9.10
2019-04-10T15:58:00.639Z,9.10
2019-04-10T16:00:23.924Z,9.10
2019-04-10T16:02:50.954Z,9.00
2019-04-10T16:05:16.062Z,9.00
2019-04-10T16:07:42.765Z,9.10
2019-04-10T16:10:08.754Z,9.00
2019-04-10T16:12:35.228Z,9.00
2019-04-10T16:15:00.756Z,8.90
2019-04-10T16:17:27.495Z,8.90
2019-04-10T16:19:54.387Z,8.90
2019-04-10T16:22:21.286Z,8.90
2019-04-10T16:24:47.134Z,8.90
2019-04-10T16:27:12.369Z,8.80
2019-04-10T16:29:38.337Z,8.90
2019-04-10T16:32:05.208Z,8.90
2019-04-10T16:34:31.111Z,8.90
2019-04-10T16:36:57.697Z,8.80
2019-04-10T16:39:23.152Z,8.80
2019-04-10T16:41:50.386Z,8.70
2019-04-10T16:44:17.110Z,8.70
2019-04-10T16:46:42.528Z,8.70
2019-04-10T16:49:08.547Z,8.60
2019-04-10T16:51:34.399Z,8.60
2019-04-10T16:54:00.225Z,8.60
2019-04-10T16:56:33.866Z,8.50
2019-04-10T16:58:58.995Z,8.50
2019-04-10T17:01:25.000Z,8.50
2019-04-10T17:03:51.001Z,8.40
2019-04-10T17:06:17.799Z,8.40
2019-04-10T17:08:43.895Z,8.40
2019-04-10T17:11:09.208Z,8.30
2019-04-10T17:13:35.120Z,8.30
2019-04-10T17:16:01.723Z,8.20
2019-04-10T17:18:27.478Z,8.20
2019-04-10T17:20:53.152Z,8.10
2019-04-10T17:23:19.150Z,8.00
2019-04-10T17:25:46.430Z,8.00
2019-04-10T17:28:12.210Z,8.00
2019-04-10T17:30:38.053Z,7.90
2019-04-10T17:33:03.293Z,7.80
2019-04-10T17:35:29.699Z,7.80
2019-04-10T17:37:56.184Z,7.70
2019-04-10T17:40:33.872Z,7.60
2019-04-10T17:42:48.451Z,7.60
2019-04-10T17:45:14.270Z,7.60
2019-04-10T17:47:40.958Z,7.60
2019-04-10T17:50:06.260Z,7.50
2019-04-10T17:52:34.737Z,7.40
2019-04-10T17:54:58.869Z,7.30
2019-04-10T17:57:33.708Z,7.30
2019-04-10T17:59:51.116Z,7.20
2019-04-10T18:02:17.722Z,7.10
2019-04-10T18:04:42.512Z,7.10
2019-04-10T18:07:08.524Z,6.90
2019-04-10T18:09:34.746Z,6.90
2019-04-10T18:12:01.091Z,6.90
2019-04-10T18:14:27.022Z,6.80
2019-04-10T18:16:52.922Z,6.80
2019-04-10T18:19:19.453Z,6.60
2019-04-10T18:21:45.919Z,6.60
2019-04-10T18:24:11.714Z,6.50
2019-04-10T18:26:37.551Z,6.40
2019-04-10T18:29:03.567Z,6.40
2019-04-10T18:31:29.599Z,6.40
2019-04-10T18:33:55.609Z,6.20
2019-04-10T18:36:22.210Z,6.20
2019-04-10T18:38:47.980Z,6.20
2019-04-10T18:41:13.798Z,6.10
2019-04-10T18:43:40.353Z,6.10
2019-04-10T18:46:12.850Z,6.00
2019-04-10T18:48:34.595Z,5.90
2019-04-10T18:50:59.464Z,5.90
2019-04-10T18:53:26.715Z,5.90
2019-04-10T18:55:52.308Z,5.80
2019-04-10T18:58:17.580Z,5.80
2019-04-10T19:00:43.545Z,5.70
2019-04-10T19:03:09.670Z,5.70
2019-04-10T19:05:36.795Z,5.70
2019-04-10T19:08:02.891Z,5.60
2019-04-10T19:10:28.684Z,5.50
2019-04-10T19:12:53.914Z,5.50
2019-04-10T19:15:20.388Z,5.50
2019-04-10T19:17:46.826Z,5.50
2019-04-10T19:20:11.901Z,5.50
2019-04-10T19:22:37.868Z,5.50
2019-04-10T19:25:03.868Z,5.40
2019-04-10T19:27:29.866Z,5.40
2019-04-10T19:29:56.953Z,5.40
2019-04-10T19:32:22.736Z,5.30
2019-04-10T19:34:49.702Z,5.30
2019-04-10T19:37:14.821Z,5.20
2019-04-10T19:39:40.796Z,5.20
2019-04-10T19:42:06.978Z,5.20
2019-04-10T19:44:32.923Z,5.20
2019-04-10T19:46:58.842Z,5.10
2019-04-10T19:49:24.995Z,5.20
2019-04-10T19:51:50.913Z,5.10
2019-04-10T19:54:17.823Z,5.10
2019-04-10T19:56:42.999Z,5.10
2019-04-10T19:59:08.997Z,5.00
2019-04-10T20:01:36.071Z,5.00
2019-04-10T20:04:02.016Z,5.00
2019-04-10T20:06:28.009Z,5.00
2019-04-10T20:08:53.157Z,4.90
2019-04-10T20:11:26.625Z,4.90
2019-04-10T20:13:47.032Z,4.90
2019-04-10T20:16:13.074Z,4.90
2019-04-10T20:18:39.037Z,4.80
2019-04-10T20:21:04.317Z,4.80
2019-04-10T20:23:30.361Z,4.80
2019-04-10T20:25:56.833Z,4.80
2019-04-10T20:28:23.186Z,4.80
2019-04-10T20:30:52.231Z,4.70
2019-04-10T20:33:16.673Z,4.60
2019-04-10T20:35:42.549Z,4.60
2019-04-10T20:38:09.215Z,4.70
2019-04-10T20:40:34.132Z,4.60
2019-04-10T20:43:00.855Z,4.60
2019-04-10T20:45:26.859Z,4.60
2019-04-10T20:47:52.850Z,4.60
2019-04-10T20:50:19.682Z,4.50
2019-04-10T20:52:45.272Z,4.50
2019-04-10T20:55:11.245Z,4.40
2019-04-10T20:57:37.502Z,4.40
2019-04-10T21:00:03.026Z,4.40
2019-04-10T21:02:28.983Z,4.40
2019-04-10T21:05:01.323Z,4.30
2019-04-10T21:07:21.355Z,4.40
2019-04-10T21:09:48.071Z,4.40
2019-04-10T21:12:14.547Z,4.40
2019-04-10T21:14:40.079Z,4.30
2019-04-10T21:17:06.707Z,4.30
2019-04-10T21:19:31.972Z,4.30
2019-04-10T21:21:57.968Z,4.30
2019-04-10T21:24:23.923Z,4.20
2019-04-10T21:26:49.907Z,4.20
2019-04-10T21:29:16.343Z,4.20
2019-04-10T21:31:42.754Z,4.40
2019-04-10T21:34:08.158Z,4.10
2019-04-10T21:36:34.957Z,4.10
2019-04-10T21:39:01.016Z,4.10
2019-04-10T21:41:26.344Z,4.10
2019-04-10T21:43:52.356Z,4.10
2019-04-10T21:46:18.344Z,4.10
2019-04-10T21:48:44.337Z,4.00
2019-04-10T21:51:11.081Z,4.00
2019-04-10T21:53:38.878Z,4.00
2019-04-10T21:56:04.159Z,4.00
2019-04-10T21:58:30.437Z,4.00
2019-04-10T22:00:57.051Z,4.10
2019-04-10T22:03:22.737Z,4.00
2019-04-10T22:05:49.457Z,4.00
2019-04-10T22:08:15.467Z,4.00
2019-04-10T22:10:41.940Z,4.00
2019-04-10T22:13:07.794Z,4.10
2019-04-10T22:15:33.510Z,4.00
2019-04-10T22:17:59.511Z,3.90
2019-04-10T22:20:25.708Z,3.90
2019-04-10T22:22:51.625Z,3.90
2019-04-10T22:25:17.588Z,3.90
2019-04-10T22:27:43.616Z,3.90
2019-04-10T22:30:10.448Z,3.80
2019-04-10T22:32:35.688Z,3.80
2019-04-10T22:35:01.685Z,3.70
2019-04-10T22:37:27.837Z,3.70
2019-04-10T22:39:54.535Z,3.70
2019-04-10T22:42:19.725Z,3.70
2019-04-10T22:44:47.180Z,3.60
2019-04-10T22:47:12.490Z,3.60
2019-04-10T22:49:39.278Z,3.70
2019-04-10T22:52:05.245Z,3.60
2019-04-10T22:54:31.237Z,3.50
2019-04-10T22:56:57.213Z,3.60
2019-04-10T22:59:24.240Z,3.50
2019-04-10T23:02:01.266Z,3.50
2019-04-10T23:04:16.046Z,3.50
2019-04-10T23:06:42.035Z,3.40
2019-04-10T23:09:08.424Z,3.30
2019-04-10T23:11:39.123Z,3.40
2019-04-10T23:14:00.534Z,3.40
2019-04-10T23:16:26.829Z,3.40
2019-04-10T23:18:53.943Z,3.30
2019-04-10T23:21:20.691Z,3.30
2019-04-10T23:23:45.637Z,3.30
2019-04-10T23:26:11.597Z,3.30
2019-04-10T23:28:37.857Z,3.30
2019-04-10T23:31:03.704Z,3.20
2019-04-10T23:33:30.190Z,3.20
2019-04-10T23:35:55.962Z,3.20
2019-04-10T23:38:21.735Z,3.20
2019-04-10T23:40:47.737Z,3.10
2019-04-10T23:43:16.683Z,3.10
2019-04-10T23:45:39.854Z,3.10
2019-04-10T23:48:06.698Z,3.00
2019-04-10T23:50:32.402Z,3.00
2019-04-10T23:52:58.373Z,2.90
2019-04-10T23:55:24.058Z,3.00
2019-04-10T23:57:49.912Z,2.90
